Airfield :
LOGIN :

Register | Disclaimer

   EN    FR    IT 

 










Legend :    VFR   Marginal VFR   IFR   Intensive IFR   Very Intensive IFR
Visi :
Ceiling :
>= 8 km
>= 3000ft
5 to 8 km
1000 to 3000 ft
1500m to 5 km
500 to 1000 ft
800 to 1500m
200 to 500 ft
< 800m
< 200 ft
Symbols :   Thunderstorms  Fog  Heavy snow  Heavy precipitations  Wind > 20 kt
SIGMETs :     Misc.  Thunderstorms  Icing  Turbulence  Mountain Waves  Volcanic Ashes






- Airport Elevation : 665 ft
- IATA code : NOC


EIKN - Connaught / Knock- Ireland West

CURRENT METAR :
  • 020630Z 34011KT 9999 SCT021 BKN030 BKN120 03/01 Q0996 NOSIG

TAF TAF EIKN
Valid from the 02 at 06:00 until the 03 at 06:00 UTC


020500Z 0206/0306 35010KT 9999 FEW012 SCT030
TEMPO 0206/0209 -SHRA FEW018CB
PROB40
TEMPO 0206/0209 4000 -SHRAGS BKN008 SCT018CB
BECMG 0207/0209 35015G26KT
TEMPO 0208/0216 34022G36KT
TEMPO 0209/0306 3000 -SHRA BKN007 SCT018CB
PROB40
TEMPO 0209/0304 2000 SHRAGS BKN004
BECMG 0216/0218 33012KT
BECMG 0220/0222 30008KT



MET'MAP, your aeronautical weather chart ! - Copyright ORBIFLY December 2007 - Disclaimer

ORBIFLY MET'MAP TEAM :

Programming & Development : Alexandra Zaïnal
Original concept : Baudouin d'Aumeries
Technical & hardware support : Manuel Goepfert
Assistance : Marc-Olivier Méhu




SOURCES & CREDITS :

   NOAA